Time;durP1;ratioP1;P1;durP2;ratioP2;P2;SDS_P1;SDS_P2;PMS_P1;PMS_P2;Temp;Humidity;BMP_temperature;BMP_pressure;BME280_temperature;BME280_humidity;BME280_pressure;Samples;Min_cycle;Max_cycle;Signal;HPM_P1;HPM_P2
2022/07/17 00:01:59;;;;;;;3.95;1.58;;;;;;;29.93;29.45;101872.38;5096423;28;20073;-48
2022/07/17 00:04:28;;;;;;;3.50;1.90;;;;;;;30.00;29.52;101884.75;5096074;28;20024;-49
2022/07/17 00:06:57;;;;;;;3.15;1.50;;;;;;;30.02;29.55;101880.34;5094571;28;20039;-43
2022/07/17 00:09:26;;;;;;;3.35;1.60;;;;;;;29.98;29.66;101887.41;5095633;28;20057;-48
2022/07/17 00:11:55;;;;;;;6.82;1.98;;;;;;;30.10;29.20;101883.00;5096194;28;20077;-52
2022/07/17 00:14:24;;;;;;;2.42;1.40;;;;;;;30.11;29.10;101882.13;5094688;28;20035;-44
2022/07/17 00:16:53;;;;;;;3.72;1.90;;;;;;;30.09;29.19;101881.22;5095832;28;20035;-43
2022/07/17 00:19:21;;;;;;;2.53;1.63;;;;;;;30.03;29.52;101884.75;5094875;28;20020;-43
2022/07/17 00:21:50;;;;;;;5.45;2.17;;;;;;;30.06;29.46;101892.72;5095552;28;20031;-42
2022/07/17 00:24:22;;;;;;;4.03;2.00;;;;;;;29.94;29.34;101887.38;5095763;28;20043;-48
2022/07/17 00:26:53;;;;;;;4.25;1.77;;;;;;;29.97;29.66;101888.28;5094731;28;20172;-54
2022/07/17 00:29:22;;;;;;;3.88;1.80;;;;;;;29.85;29.49;101875.88;5095502;28;20020;-43
2022/07/17 00:31:50;;;;;;;5.00;1.63;;;;;;;29.83;29.51;101853.81;5095433;28;20024;-55
2022/07/17 00:34:19;;;;;;;3.15;1.52;;;;;;;29.92;29.69;101887.34;5095345;28;20034;-52
2022/07/17 00:36:47;;;;;;;6.18;1.83;;;;;;;29.91;29.55;101874.13;5095311;28;20028;-43
2022/07/17 00:39:16;;;;;;;4.07;2.05;;;;;;;29.90;29.23;101870.59;5095372;28;20103;-53
2022/07/17 00:41:46;;;;;;;13.35;2.55;;;;;;;29.82;29.26;101862.63;5095545;28;20107;-56
2022/07/17 00:44:14;;;;;;;4.57;1.88;;;;;;;29.86;29.25;101869.69;5094208;28;20024;-44
2022/07/17 00:46:44;;;;;;;2.92;1.67;;;;;;;29.82;29.68;101873.22;5095186;28;20093;-45
2022/07/17 00:49:12;;;;;;;2.47;1.50;;;;;;;29.86;29.31;101874.13;5095282;28;20111;-43
2022/07/17 00:51:40;;;;;;;3.88;2.00;;;;;;;29.84;29.35;101863.53;5095375;28;20470;-46
2022/07/17 00:54:10;;;;;;;3.10;1.73;;;;;;;29.75;29.49;101871.44;5094689;28;20032;-52
2022/07/17 00:56:39;;;;;;;2.50;1.73;;;;;;;29.70;29.53;101866.13;5093907;28;20020;-45
2022/07/17 00:59:07;;;;;;;8.60;1.85;;;;;;;29.72;29.65;101863.50;5093536;28;20462;-55
2022/07/17 01:01:35;;;;;;;3.72;1.98;;;;;;;29.73;29.79;101873.19;5093637;28;20024;-47
2022/07/17 01:04:05;;;;;;;4.85;1.77;;;;;;;29.71;29.31;101856.44;5093935;28;20016;-45
2022/07/17 01:06:34;;;;;;;3.97;2.05;;;;;;;29.69;29.27;101858.19;5094919;28;20039;-56
2022/07/17 01:09:02;;;;;;;5.53;2.10;;;;;;;29.75;29.25;101867.91;5094967;28;20028;-48
2022/07/17 01:11:31;;;;;;;3.70;2.33;;;;;;;29.67;29.45;101867.88;5094598;28;20099;-44
2022/07/17 01:13:59;;;;;;;7.68;2.47;;;;;;;29.56;29.43;101854.63;5094683;28;20381;-46
2022/07/17 01:16:28;;;;;;;7.55;1.85;;;;;;;29.61;29.46;101857.31;5076797;28;20396;-51
2022/07/17 01:18:58;;;;;;;3.75;1.95;;;;;;;29.60;29.49;101855.53;5093786;28;20024;-44
2022/07/17 01:21:26;;;;;;;5.72;1.88;;;;;;;29.68;29.37;101864.38;5076574;28;20124;-42
2022/07/17 01:23:55;;;;;;;2.70;1.70;;;;;;;29.67;29.17;101867.88;5093410;28;20024;-43
2022/07/17 01:26:23;;;;;;;4.32;2.15;;;;;;;29.64;29.07;101849.34;5094257;28;20052;-44
2022/07/17 01:28:52;;;;;;;2.58;1.83;;;;;;;29.67;29.27;101849.38;5094223;28;20442;-43
2022/07/17 01:31:20;;;;;;;3.03;1.67;;;;;;;29.67;29.32;101850.28;5076677;28;20027;-43
2022/07/17 01:33:50;;;;;;;2.17;1.52;;;;;;;29.55;29.35;101842.28;5094787;28;20105;-44
2022/07/17 01:36:23;;;;;;;3.30;1.70;;;;;;;29.56;29.32;101866.09;5094452;28;20024;-45
2022/07/17 01:38:52;;;;;;;4.70;2.15;;;;;;;29.65;28.92;101845.84;5093048;28;20028;-46
2022/07/17 01:41:21;;;;;;;3.78;1.98;;;;;;;29.68;29.27;101843.22;5094278;28;20069;-50
2022/07/17 01:43:49;;;;;;;3.15;1.75;;;;;;;29.63;29.01;101845.84;5075900;28;20020;-43
2022/07/17 01:46:18;;;;;;;4.07;2.10;;;;;;;29.58;29.05;101838.78;5094524;28;20027;-45
2022/07/17 01:48:46;;;;;;;2.25;1.65;;;;;;;29.50;29.40;101839.63;5094350;28;20035;-50
2022/07/17 01:51:15;;;;;;;4.28;1.90;;;;;;;29.42;29.34;101820.25;5093877;28;20050;-43
2022/07/17 01:53:43;;;;;;;5.95;2.30;;;;;;;29.54;29.26;101845.81;5094359;28;20073;-42
2022/07/17 01:56:12;;;;;;;4.47;2.33;;;;;;;29.54;29.36;101840.50;5094327;28;20012;-55
2022/07/17 01:58:39;;;;;;;4.80;1.83;;;;;;;29.49;29.11;101839.63;5094174;28;20385;-45
2022/07/17 02:01:08;;;;;;;4.60;1.77;;;;;;;29.45;29.18;101837.84;5093913;28;20077;-43
2022/07/17 02:03:36;;;;;;;2.83;1.67;;;;;;;29.46;29.44;101845.78;5094032;28;20426;-51
2022/07/17 02:06:05;;;;;;;4.00;1.98;;;;;;;29.32;29.75;101843.06;5093926;28;20036;-47
2022/07/17 02:08:34;;;;;;;4.53;1.98;;;;;;;29.28;29.81;101830.72;5093764;28;20031;-43
2022/07/17 02:11:01;;;;;;;4.32;1.98;;;;;;;29.30;29.46;101828.97;5092344;28;20039;-54
2022/07/17 02:13:29;;;;;;;4.05;1.70;;;;;;;29.48;29.40;101841.38;5093946;28;20076;-57
2022/07/17 02:15:58;;;;;;;4.93;1.70;;;;;;;29.44;29.38;101838.72;5093786;28;20036;-52
2022/07/17 02:18:27;;;;;;;3.83;1.70;;;;;;;29.28;29.47;101814.00;5093811;28;20380;-55
2022/07/17 02:20:55;;;;;;;9.05;1.95;;;;;;;29.36;29.19;101839.59;5091959;28;20054;-52
2022/07/17 02:23:24;;;;;;;3.58;1.63;;;;;;;29.30;29.51;101839.53;5091795;28;20036;-50
2022/07/17 02:25:52;;;;;;;2.83;1.75;;;;;;;29.17;29.69;101828.03;5093067;28;20044;-49
2022/07/17 02:28:21;;;;;;;4.70;1.77;;;;;;;29.22;29.32;101823.66;5092392;28;20024;-44
2022/07/17 02:30:49;;;;;;;3.88;1.63;;;;;;;29.23;29.62;101825.41;5093198;28;20431;-45
2022/07/17 02:33:18;;;;;;;3.45;1.50;;;;;;;29.28;29.57;101833.34;5092989;28;20043;-56
2022/07/17 02:35:47;;;;;;;7.85;2.13;;;;;;;29.31;29.17;101830.72;5093644;28;20123;-44
2022/07/17 02:38:15;;;;;;;4.07;1.52;;;;;;;29.23;29.32;101813.94;5092425;28;20389;-44
2022/07/17 02:40:44;;;;;;;5.85;1.75;;;;;;;29.39;29.39;101833.44;5093370;28;20132;-46
2022/07/17 02:43:13;;;;;;;3.28;1.98;;;;;;;29.36;29.38;101833.41;5092906;28;20130;-50
2022/07/17 02:45:41;;;;;;;5.40;1.80;;;;;;;29.37;29.44;101825.47;5093278;28;20076;-50
2022/07/17 02:48:10;;;;;;;3.58;1.85;;;;;;;29.36;29.44;101828.13;5093358;28;20048;-52
2022/07/17 02:50:38;;;;;;;4.38;2.03;;;;;;;29.33;29.29;101828.97;5092677;28;20031;-49
2022/07/17 02:53:07;;;;;;;7.72;2.25;;;;;;;29.26;29.47;101825.44;5093285;28;20024;-47
2022/07/17 02:55:35;;;;;;;3.30;1.63;;;;;;;29.32;29.31;101823.66;5093322;28;20398;-45
2022/07/17 02:58:04;;;;;;;3.90;1.85;;;;;;;29.31;29.39;101827.19;5093032;28;20028;-44
2022/07/17 03:00:32;;;;;;;4.72;1.88;;;;;;;29.32;29.35;101827.22;5092989;28;20077;-56
2022/07/17 03:02:59;;;;;;;3.47;1.75;;;;;;;29.32;29.20;101823.66;5092955;28;20074;-54
2022/07/17 03:05:28;;;;;;;2.50;1.70;;;;;;;29.29;29.10;101813.97;5093491;28;20431;-49
2022/07/17 03:07:57;;;;;;;7.18;1.38;;;;;;;29.31;29.00;101819.25;5093063;28;20430;-49
2022/07/17 03:10:25;;;;;;;5.10;2.20;;;;;;;29.24;29.27;101813.06;5092908;28;20380;-43
2022/07/17 03:12:54;;;;;;;6.55;2.08;;;;;;;29.15;29.30;101815.69;5093043;28;20107;-52
2022/07/17 03:15:23;;;;;;;3.78;1.33;;;;;;;29.17;29.12;101809.53;5093325;28;20035;-48
2022/07/17 03:17:52;;;;;;;2.20;1.60;;;;;;;29.13;29.66;101818.31;5092841;28;20081;-45
2022/07/17 03:20:21;;;;;;;6.22;1.98;;;;;;;29.15;29.50;101813.03;5092918;28;20096;-48
2022/07/17 03:22:50;;;;;;;2.22;1.60;;;;;;;29.11;29.32;101806.88;5092396;28;20055;-44
2022/07/17 03:25:18;;;;;;;2.70;1.67;;;;;;;29.15;29.21;101807.75;5092525;28;20481;-56
2022/07/17 03:27:46;;;;;;;2.88;1.90;;;;;;;29.23;29.02;101820.13;5092861;28;20039;-48
2022/07/17 03:30:13;;;;;;;3.58;1.63;;;;;;;29.14;29.24;101816.56;5092836;28;20028;-47
2022/07/17 03:32:42;;;;;;;3.15;1.70;;;;;;;29.12;29.40;101813.94;5093138;28;20027;-44
2022/07/17 03:35:10;;;;;;;4.68;1.83;;;;;;;29.19;29.38;101813.06;5092551;28;20093;-44
2022/07/17 03:37:39;;;;;;;2.50;1.70;;;;;;;29.12;29.15;101811.28;5092902;28;20032;-56
2022/07/17 03:40:08;;;;;;;5.15;1.60;;;;;;;29.12;29.38;101821.84;5092541;28;20030;-52
2022/07/17 03:42:37;;;;;;;4.75;1.92;;;;;;;29.18;29.22;101815.72;5092744;28;20489;-47
2022/07/17 03:45:06;;;;;;;3.65;1.75;;;;;;;29.17;29.27;101814.81;5093891;28;20069;-54
2022/07/17 03:47:34;;;;;;;3.40;1.52;;;;;;;29.13;29.06;101812.16;5095779;28;20435;-51
2022/07/17 03:50:03;;;;;;;2.67;1.83;;;;;;;29.16;29.08;101818.31;5096335;28;20055;-48
2022/07/17 03:52:32;;;;;;;3.38;1.98;;;;;;;29.17;29.13;101817.44;5094877;28;20107;-48
2022/07/17 03:55:00;;;;;;;5.03;2.03;;;;;;;29.16;29.09;101822.75;5096136;28;20066;-44
2022/07/17 03:57:29;;;;;;;2.60;1.73;;;;;;;29.23;28.75;101825.41;5096582;28;20024;-46
2022/07/17 03:59:58;;;;;;;5.07;1.60;;;;;;;28.93;29.51;101795.34;5095747;28;20433;-49
2022/07/17 04:02:27;;;;;;;4.47;2.00;;;;;;;29.04;29.31;101818.28;5095745;28;20457;-43
2022/07/17 04:04:55;;;;;;;2.95;1.75;;;;;;;29.07;29.11;101813.88;5096111;28;20494;-51
2022/07/17 04:07:27;;;;;;;3.53;1.70;;;;;;;29.04;29.27;101811.22;5095863;28;20485;-44
2022/07/17 04:09:57;;;;;;;3.38;1.80;;;;;;;29.04;29.22;101818.28;5095958;28;20060;-56
2022/07/17 04:12:25;;;;;;;5.68;2.08;;;;;;;29.08;29.19;101826.22;5096066;28;20020;-43
2022/07/17 04:14:53;;;;;;;5.35;1.85;;;;;;;29.04;29.17;101829.72;5095789;28;20516;-49
2022/07/17 04:17:22;;;;;;;3.83;1.98;;;;;;;28.99;29.27;101827.94;5095708;28;20036;-44
2022/07/17 04:19:51;;;;;;;5.13;2.03;;;;;;;29.01;29.17;101828.81;5095769;28;20020;-47
2022/07/17 04:22:19;;;;;;;5.38;2.03;;;;;;;29.07;29.04;101837.66;5095737;28;20024;-45
2022/07/17 04:24:48;;;;;;;6.95;1.92;;;;;;;29.07;29.30;101839.44;5095745;28;20040;-51
2022/07/17 04:27:16;;;;;;;5.00;1.80;;;;;;;29.09;29.01;101838.56;5095782;28;20059;-55
2022/07/17 04:29:45;;;;;;;5.20;2.15;;;;;;;29.04;29.20;101836.78;5095265;28;20032;-48
2022/07/17 04:32:14;;;;;;;5.25;2.00;;;;;;;28.92;29.21;101829.66;5095180;28;20039;-47
2022/07/17 04:34:41;;;;;;;4.57;2.20;;;;;;;28.93;29.05;101820.84;5095131;28;20366;-49
2022/07/17 04:37:10;;;;;;;5.57;1.90;;;;;;;28.93;29.18;101824.41;5095497;28;20556;-47
2022/07/17 04:39:39;;;;;;;4.82;2.20;;;;;;;28.94;29.11;101826.16;5094111;28;20077;-52
2022/07/17 04:42:07;;;;;;;5.93;2.03;;;;;;;28.93;29.10;101829.69;5095755;28;20028;-47
2022/07/17 04:44:36;;;;;;;8.38;1.67;;;;;;;28.87;29.05;101829.63;5095384;28;20027;-56
2022/07/17 04:47:04;;;;;;;4.95;1.92;;;;;;;28.84;29.12;101831.38;5095250;28;20389;-45
2022/07/17 04:49:33;;;;;;;2.85;1.40;;;;;;;28.83;29.12;101835.75;5095391;28;20093;-52
2022/07/17 04:52:01;;;;;;;6.68;2.08;;;;;;;28.74;29.11;101830.44;5095494;28;20070;-47
2022/07/17 04:54:30;;;;;;;4.45;1.92;;;;;;;28.68;29.38;101831.25;5095889;28;20031;-51
2022/07/17 04:56:59;;;;;;;4.93;1.90;;;;;;;28.64;29.46;101834.75;5094227;28;20017;-49
2022/07/17 04:59:27;;;;;;;5.63;2.10;;;;;;;28.73;29.21;101833.91;5094505;28;20032;-45
2022/07/17 05:01:55;;;;;;;6.75;1.80;;;;;;;28.76;29.19;101834.84;5095211;28;20103;-43
2022/07/17 05:04:24;;;;;;;3.58;2.15;;;;;;;28.73;29.25;101828.63;5095113;28;20028;-47
2022/07/17 05:06:52;;;;;;;3.17;1.88;;;;;;;28.65;29.27;101823.31;5093536;28;20028;-45
2022/07/17 05:09:21;;;;;;;3.80;2.00;;;;;;;28.61;29.50;101840.00;5094883;28;20028;-52
2022/07/17 05:11:49;;;;;;;3.55;1.70;;;;;;;28.58;29.43;101838.22;5094793;28;20031;-46
2022/07/17 05:14:19;;;;;;;4.07;1.58;;;;;;;28.63;29.13;101839.13;5093413;28;20024;-49
2022/07/17 05:16:48;;;;;;;3.72;1.85;;;;;;;28.71;28.95;101841.81;5094745;28;20031;-46
2022/07/17 05:19:17;;;;;;;2.75;1.73;;;;;;;28.76;28.89;101847.19;5094624;28;20415;-52
2022/07/17 05:21:45;;;;;;;6.85;1.90;;;;;;;28.75;28.96;101845.41;5092628;28;20492;-46
2022/07/17 05:24:14;;;;;;;10.10;2.22;;;;;;;28.68;29.13;101835.63;5094487;28;20036;-48
2022/07/17 05:26:43;;;;;;;5.85;1.75;;;;;;;28.59;29.14;101842.63;5094182;28;20474;-46
2022/07/17 05:29:11;;;;;;;4.43;2.15;;;;;;;28.55;29.41;101838.19;5094113;28;20063;-49
2022/07/17 05:31:40;;;;;;;3.20;1.63;;;;;;;28.51;29.36;101836.41;5094332;28;20152;-45
2022/07/17 05:34:08;;;;;;;5.72;1.70;;;;;;;28.66;29.06;101848.84;5094115;28;20035;-53
2022/07/17 05:36:36;;;;;;;5.57;1.80;;;;;;;28.66;29.11;101849.72;5094783;28;20114;-51
2022/07/17 05:39:04;;;;;;;2.60;1.95;;;;;;;28.69;28.72;101848.88;5093974;28;20481;-45
2022/07/17 05:41:32;;;;;;;2.65;1.70;;;;;;;28.58;28.78;101843.50;5094116;28;20358;-52
2022/07/17 05:44:01;;;;;;;6.43;2.30;;;;;;;28.58;28.99;101847.88;5094336;28;20034;-50
2022/07/17 05:46:29;;;;;;;4.82;1.90;;;;;;;28.41;29.08;101842.50;5092619;28;20393;-48
2022/07/17 05:48:57;;;;;;;3.92;1.88;;;;;;;28.42;28.98;101838.97;5093911;28;20123;-52
2022/07/17 05:51:25;;;;;;;5.35;1.92;;;;;;;28.53;28.80;101847.00;5094093;28;20093;-49
2022/07/17 05:53:54;;;;;;;2.72;1.77;;;;;;;28.51;28.85;101844.31;5093781;28;20473;-51
2022/07/17 05:56:22;;;;;;;5.68;2.30;;;;;;;28.52;28.66;101846.09;5094379;28;20036;-43
2022/07/17 05:58:51;;;;;;;5.80;2.00;;;;;;;28.61;28.63;101840.91;5082725;28;20029;-43
2022/07/17 06:01:19;;;;;;;3.95;2.00;;;;;;;28.46;28.82;101840.78;5069774;28;20101;-43
2022/07/17 06:03:47;;;;;;;4.47;1.90;;;;;;;28.49;28.83;101835.50;5075854;28;20028;-46
2022/07/17 06:06:15;;;;;;;4.72;1.83;;;;;;;28.44;28.86;101837.25;5069631;28;20025;-44
2022/07/17 06:08:44;;;;;;;2.70;1.75;;;;;;;28.41;28.90;101827.53;5069669;28;20040;-44
2022/07/17 06:11:12;;;;;;;3.55;1.88;;;;;;;28.51;28.79;101831.13;5076923;28;20032;-45
2022/07/17 06:13:40;;;;;;;6.82;1.95;;;;;;;28.55;28.66;101825.00;5070347;28;20032;-49
2022/07/17 06:16:09;;;;;;;3.53;1.58;;;;;;;28.50;28.80;101826.72;5070892;28;20035;-46
2022/07/17 06:18:37;;;;;;;4.32;2.15;;;;;;;28.56;28.76;101832.06;5077053;28;20035;-44
2022/07/17 06:21:05;;;;;;;2.78;1.70;;;;;;;28.46;29.07;101823.19;5070760;28;20032;-43
2022/07/17 06:23:34;;;;;;;3.38;1.60;;;;;;;28.49;28.97;101824.94;5063880;28;20221;-43
2022/07/17 06:26:01;;;;;;;3.28;1.80;;;;;;;28.52;28.82;101830.25;5076358;28;20112;-49
2022/07/17 06:28:32;;;;;;;7.38;2.17;;;;;;;28.56;28.74;101826.78;5070710;28;20044;-46
2022/07/17 06:31:00;;;;;;;7.55;1.80;;;;;;;28.50;28.81;101829.34;5070264;28;20036;-44
2022/07/17 06:33:29;;;;;;;3.72;1.98;;;;;;;28.53;28.76;101834.66;5069953;28;20036;-50
2022/07/17 06:35:57;;;;;;;4.28;1.90;;;;;;;28.59;28.54;101831.19;5070732;28;20032;-44
2022/07/17 06:38:25;;;;;;;4.32;1.73;;;;;;;28.60;28.56;101833.84;5063735;28;20119;-43
2022/07/17 06:40:54;;;;;;;3.95;1.75;;;;;;;28.65;28.78;101840.03;5069501;28;20024;-48
2022/07/17 06:46:44;;;;;;;6.82;1.60;;;;;;;28.62;28.76;101840.03;5068309;28;20523;-44
2022/07/17 06:49:12;;;;;;;4.15;1.55;;;;;;;28.68;28.60;101847.09;5070737;28;20021;-47
2022/07/17 06:51:41;;;;;;;8.23;2.10;;;;;;;28.60;28.79;101844.41;5063896;28;20029;-43
2022/07/17 06:54:10;;;;;;;4.35;2.13;;;;;;;28.68;28.63;101844.47;5068305;28;20020;-45
2022/07/17 06:56:37;;;;;;;2.35;1.33;;;;;;;28.72;28.50;101845.34;5071039;28;20036;-47
2022/07/17 06:59:07;;;;;;;6.03;1.90;;;;;;;28.80;28.23;101841.91;5067280;28;20031;-46
2022/07/17 07:01:36;;;;;;;5.57;1.90;;;;;;;28.88;28.17;101843.72;5069277;28;20115;-44
2022/07/17 07:04:05;;;;;;;3.28;1.60;;;;;;;28.91;28.06;101844.63;5070823;28;20029;-49
2022/07/17 07:06:34;;;;;;;3.97;1.67;;;;;;;28.98;27.95;101847.28;5070621;28;20451;-44
2022/07/17 07:09:02;;;;;;;4.72;1.85;;;;;;;28.98;27.95;101857.84;5069146;28;20048;-47
2022/07/17 07:11:30;;;;;;;3.33;1.63;;;;;;;29.06;27.83;101853.50;5080508;28;20032;-46
2022/07/17 07:13:59;;;;;;;3.05;1.63;;;;;;;28.99;28.17;101849.06;5064375;28;20031;-44
2022/07/17 07:16:28;;;;;;;4.40;1.80;;;;;;;29.11;28.11;101847.38;5074763;28;20032;-43
2022/07/17 07:18:57;;;;;;;4.28;1.77;;;;;;;29.09;27.55;101861.47;5070204;28;20032;-43
2022/07/17 07:21:26;;;;;;;3.45;1.42;;;;;;;28.98;28.14;101852.56;5075480;28;20020;-47
2022/07/17 07:23:57;;;;;;;7.70;2.30;;;;;;;28.94;28.13;101849.03;5075211;28;20085;-53
2022/07/17 07:26:25;;;;;;;4.45;2.00;;;;;;;29.00;28.09;101853.47;5067243;28;20085;-50
2022/07/17 07:28:54;;;;;;;2.53;1.45;;;;;;;29.10;27.85;101866.75;5073171;28;20515;-45
2022/07/17 07:31:23;;;;;;;2.25;1.50;;;;;;;29.10;27.92;101852.66;5073512;28;20489;-45
2022/07/17 07:33:51;;;;;;;6.93;1.92;;;;;;;29.11;27.90;101863.22;5073253;28;20032;-47
2022/07/17 07:36:18;;;;;;;8.55;2.30;;;;;;;29.20;27.92;101854.47;5067963;28;20495;-44
2022/07/17 07:38:47;;;;;;;7.97;2.10;;;;;;;29.21;27.52;101856.22;5077385;28;20039;-43
2022/07/17 07:41:15;;;;;;;3.85;1.48;;;;;;;29.23;27.96;101870.34;5073215;28;20031;-48
2022/07/17 07:43:44;;;;;;;5.30;1.90;;;;;;;29.19;28.00;101865.03;5074840;28;20042;-47
2022/07/17 07:46:13;;;;;;;2.72;1.52;;;;;;;29.24;28.01;101872.09;5074867;28;20064;-54
2022/07/17 07:48:41;;;;;;;7.05;1.95;;;;;;;29.18;27.59;101869.41;5068146;28;20398;-48
2022/07/17 07:51:10;;;;;;;8.07;1.85;;;;;;;29.23;27.59;101864.16;5072414;28;20130;-48
2022/07/17 07:53:38;;;;;;;6.05;1.88;;;;;;;29.21;27.48;101874.72;5074970;28;20031;-49
2022/07/17 07:56:06;;;;;;;2.65;1.42;;;;;;;29.34;27.66;101880.97;5072730;28;20139;-51
2022/07/17 07:58:34;;;;;;;8.07;1.73;;;;;;;29.30;27.74;101883.56;5066663;28;20557;-46
2022/07/17 08:01:03;;;;;;;2.78;1.60;;;;;;;29.37;27.79;101888.03;5077124;28;20469;-43
2022/07/17 08:03:31;;;;;;;4.72;1.85;;;;;;;29.50;27.92;101887.22;5071901;28;20260;-52
2022/07/17 08:06:00;;;;;;;5.55;1.60;;;;;;;29.43;27.88;101890.72;5074644;28;20477;-47
2022/07/17 08:08:28;;;;;;;3.92;1.98;;;;;;;29.44;27.98;101889.84;5074951;28;20032;-44
2022/07/17 08:10:57;;;;;;;3.85;1.65;;;;;;;29.47;28.07;101902.19;5068332;28;20040;-43
2022/07/17 08:13:25;;;;;;;4.93;1.90;;;;;;;29.41;27.84;101887.19;5075555;28;20047;-52
2022/07/17 08:15:53;;;;;;;6.03;1.90;;;;;;;29.46;27.90;101877.50;5075422;28;20024;-48
2022/07/17 08:18:22;;;;;;;3.47;1.50;;;;;;;29.58;27.73;101881.09;5074830;28;20196;-47
2022/07/17 08:20:51;;;;;;;6.30;1.92;;;;;;;29.58;27.85;101878.44;5068100;28;20032;-44
2022/07/17 08:23:18;;;;;;;3.00;1.50;;;;;;;29.66;28.10;101888.16;5071670;28;20165;-45
2022/07/17 08:25:48;;;;;;;6.32;1.42;;;;;;;29.63;28.29;101887.25;5070421;28;20144;-47
2022/07/17 08:28:16;;;;;;;5.90;2.17;;;;;;;29.71;28.39;101885.53;5074269;28;20473;-46
2022/07/17 08:30:45;;;;;;;3.03;1.90;;;;;;;29.75;27.98;101881.13;5072936;28;20386;-47
2022/07/17 08:33:15;;;;;;;3.70;1.60;;;;;;;29.75;28.26;101867.91;5068508;28;20029;-46
2022/07/17 08:35:43;;;;;;;4.82;2.10;;;;;;;29.65;27.95;101859.06;5075764;28;20517;-45
2022/07/17 08:38:12;;;;;;;5.07;1.90;;;;;;;29.85;28.43;101873.22;5074136;28;20028;-43
2022/07/17 08:40:43;;;;;;;2.42;1.80;;;;;;;29.90;27.92;101875.00;5075179;28;20040;-43
2022/07/17 08:43:11;;;;;;;4.80;1.85;;;;;;;29.88;28.00;101860.88;5067666;28;20089;-51
2022/07/17 08:45:41;;;;;;;5.10;1.90;;;;;;;29.93;27.86;101861.78;5071237;28;20032;-47
2022/07/17 08:48:10;;;;;;;4.75;1.52;;;;;;;29.95;27.99;101862.69;5071998;28;20028;-45
2022/07/17 08:50:38;;;;;;;3.88;1.40;;;;;;;29.91;27.90;101856.47;5075159;28;20035;-45
2022/07/17 08:53:07;;;;;;;9.35;2.15;;;;;;;29.92;28.14;101874.13;5074831;28;20033;-55
2022/07/17 08:55:36;;;;;;;5.10;1.70;;;;;;;29.92;28.09;101863.53;5067499;28;20040;-52
2022/07/17 08:58:05;;;;;;;3.95;1.60;;;;;;;30.11;27.87;101884.78;5071661;28;20024;-49
2022/07/17 09:00:34;;;;;;;3.97;1.60;;;;;;;30.14;28.04;101879.50;5073779;28;20034;-44
2022/07/17 09:03:03;;;;;;;6.80;1.75;;;;;;;30.15;27.68;101868.88;5074435;28;20025;-45
2022/07/17 09:05:34;;;;;;;6.13;1.50;;;;;;;30.19;27.64;101874.19;5067735;28;20035;-43
2022/07/17 09:08:05;;;;;;;3.50;1.75;;;;;;;30.22;27.38;101871.56;5070906;28;20193;-45
2022/07/17 09:10:39;;;;;;;5.18;1.88;;;;;;;30.22;26.95;101872.41;5071013;28;20028;-43
2022/07/17 09:13:29;;;;;;;4.20;1.42;;;;;;;30.22;27.22;101869.78;5073203;28;20024;-48
2022/07/17 09:16:00;;;;;;;7.50;1.73;;;;;;;30.18;27.13;101862.75;5055452;28;20090;-46
2022/07/17 09:18:29;;;;;;;3.78;1.95;;;;;;;30.17;27.29;101869.78;5071299;28;20036;-44
2022/07/17 09:20:58;;;;;;;4.72;1.80;;;;;;;30.17;27.59;101872.44;5076816;28;20032;-43
2022/07/17 09:23:28;;;;;;;6.80;1.67;;;;;;;30.17;27.36;101869.78;5076610;28;20537;-50
2022/07/17 09:25:57;;;;;;;6.22;1.73;;;;;;;30.27;27.13;101867.16;5069378;28;20055;-44
2022/07/17 09:28:26;;;;;;;7.07;1.80;;;;;;;30.29;27.48;101865.34;5066173;28;20464;-51
2022/07/17 09:30:55;;;;;;;3.97;1.90;;;;;;;30.31;27.22;101866.25;5076121;28;20024;-43
2022/07/17 09:33:27;;;;;;;3.85;1.52;;;;;;;30.37;27.01;101862.72;5076139;28;20039;-43
2022/07/17 09:36:15;;;;;;;12.00;2.03;;;;;;;30.35;27.04;101854.78;5069109;28;20474;-43
2022/07/17 09:38:44;;;;;;;7.82;1.90;;;;;;;30.46;26.74;101854.78;5070639;28;20508;-44
2022/07/17 09:41:16;;;;;;;4.43;1.60;;;;;;;30.48;26.75;101858.31;5070716;28;20473;-47
2022/07/17 09:43:48;;;;;;;5.15;1.67;;;;;;;30.52;26.54;101857.44;5071728;28;20028;-56
2022/07/17 09:46:18;;;;;;;7.75;2.03;;;;;;;30.58;26.02;101852.16;5070078;28;20039;-47
2022/07/17 09:48:53;;;;;;;4.80;1.60;;;;;;;30.70;26.25;101855.66;5064868;28;20038;-43
2022/07/17 09:51:41;;;;;;;12.63;2.42;;;;;;;30.68;26.26;101849.50;5077433;28;20477;-44
2022/07/17 09:54:11;;;;;;;4.30;1.90;;;;;;;30.68;26.15;101849.50;5074713;28;20161;-46
2022/07/17 09:56:40;;;;;;;3.83;1.80;;;;;;;30.79;25.76;101842.41;5068382;28;20032;-43
2022/07/17 09:59:11;;;;;;;6.75;2.05;;;;;;;30.85;25.55;101836.22;5070125;28;20039;-45
2022/07/17 10:01:43;;;;;;;5.15;1.80;;;;;;;30.89;25.55;101830.03;5073064;28;20032;-46
2022/07/17 10:04:13;;;;;;;5.40;1.70;;;;;;;30.83;25.81;101843.28;5073327;28;20497;-44
2022/07/17 10:06:41;;;;;;;4.20;1.75;;;;;;;30.96;25.50;101841.50;5070111;28;20038;-43
2022/07/17 10:09:09;;;;;;;4.93;1.65;;;;;;;30.89;24.78;101827.38;5068691;28;20031;-45
2022/07/17 10:11:39;;;;;;;6.40;2.00;;;;;;;30.89;25.39;101835.34;5069389;28;20024;-53
2022/07/17 10:14:10;;;;;;;5.43;1.83;;;;;;;30.89;25.61;101832.69;5069252;28;20041;-46
2022/07/17 10:16:40;;;;;;;7.50;2.22;;;;;;;30.93;25.71;101826.50;5071946;28;20052;-45
2022/07/17 10:19:21;;;;;;;3.22;1.70;;;;;;;30.96;25.82;101818.50;5069369;28;20031;-45
2022/07/17 10:22:08;;;;;;;4.68;1.67;;;;;;;30.99;25.78;101818.50;5069626;28;20461;-44
2022/07/17 10:24:47;;;;;;;2.00;1.60;;;;;;;31.00;25.84;101828.22;5068688;28;20035;-44
2022/07/17 10:27:36;;;;;;;4.22;1.42;;;;;;;31.07;25.53;101819.38;5068127;28;20298;-47
2022/07/17 10:30:07;;;;;;;3.75;1.58;;;;;;;31.15;25.40;101823.78;5069588;28;20036;-47
2022/07/17 10:32:36;;;;;;;8.88;1.80;;;;;;;31.14;24.50;101800.81;5069816;28;20020;-45
2022/07/17 10:35:06;;;;;;;3.42;2.00;;;;;;;31.31;24.71;101812.22;5070155;28;20034;-47
2022/07/17 10:37:41;;;;;;;4.95;1.67;;;;;;;31.30;25.01;101809.59;5070082;28;20050;-45
2022/07/17 10:40:16;;;;;;;;;;;;;;;31.25;25.43;101804.31;5069936;28;20380;-46
2022/07/17 10:42:45;;;;;;;;;;;;;;;31.36;24.87;101801.59;5070359;28;19912;-46
2022/07/17 10:45:15;;;;;;;4.93;1.55;;;;;;;31.47;24.42;101798.88;5069913;28;20384;-57
2022/07/17 10:47:46;;;;;;;5.15;1.85;;;;;;;31.45;25.01;101800.66;5069441;28;20097;-44
2022/07/17 10:50:16;;;;;;;5.50;1.77;;;;;;;31.46;25.04;101798.00;5075569;28;20035;-47
2022/07/17 10:52:44;;;;;;;4.60;1.40;;;;;;;31.47;24.76;101805.06;5069881;28;20037;-46
2022/07/17 10:55:24;;;;;;;3.58;1.80;;;;;;;31.41;24.58;101793.63;5072509;28;21027;-44
2022/07/17 10:57:51;;;;;;;2.08;1.60;;;;;;;31.39;25.01;101796.28;5072300;28;20618;-50
2022/07/17 11:00:20;;;;;;;5.18;2.00;;;;;;;31.44;25.29;101791.84;5078992;28;20408;-51
2022/07/17 11:02:49;;;;;;;2.90;1.70;;;;;;;31.46;24.60;101786.50;5079045;28;20024;-45
2022/07/17 11:05:18;;;;;;;7.10;1.58;;;;;;;31.49;24.75;101800.66;5070498;28;20063;-44
2022/07/17 11:07:59;;;;;;;4.07;1.77;;;;;;;31.53;24.48;101788.25;5073672;28;20083;-47
2022/07/17 11:10:29;;;;;;;5.45;1.90;;;;;;;31.54;24.59;101792.66;5073368;28;20038;-46
2022/07/17 11:13:10;;;;;;;11.90;1.90;;;;;;;31.58;24.67;101788.22;5077054;28;20031;-45
2022/07/17 11:15:40;;;;;;;8.88;1.80;;;;;;;31.59;24.05;101782.91;5075083;28;20428;-44
2022/07/17 11:18:15;;;;;;;7.10;2.10;;;;;;;31.68;24.47;101780.19;5067540;28;20413;-49
2022/07/17 11:21:02;;;;;;;8.35;1.90;;;;;;;31.68;24.61;101785.50;5073416;28;20054;-46
2022/07/17 11:23:34;;;;;;;5.88;1.70;;;;;;;31.71;24.12;101776.66;5078125;28;20040;-45
2022/07/17 11:26:05;;;;;;;7.53;2.00;;;;;;;31.75;24.43;101780.19;5071551;28;20573;-45
2022/07/17 11:28:52;;;;;;;6.53;1.88;;;;;;;31.87;24.28;101782.72;5077049;28;20047;-46
2022/07/17 11:31:23;;;;;;;6.78;2.10;;;;;;;31.91;24.51;101787.13;5073611;28;20138;-51
2022/07/17 11:33:55;;;;;;;3.53;1.80;;;;;;;32.06;23.98;101790.53;5074206;28;20033;-48
2022/07/17 11:36:28;;;;;;;4.82;2.22;;;;;;;32.10;24.07;101789.63;5072649;28;20512;-50
2022/07/17 11:39:04;;;;;;;4.28;1.88;;;;;;;32.02;25.42;101787.00;5073065;28;20085;-49
2022/07/17 11:41:35;;;;;;;5.65;2.40;;;;;;;31.97;25.90;101792.38;5067088;28;20032;-48